Time,TemperatureF,DewpointF,PressureIn,WindDirection,WindDirectionDegrees,WindSpeedMPH,WindSpeedGustMPH,Humidity,HourlyPrecipIn,Conditions,Clouds,dailyrainin,SoftwareType,DateUTC
2013-06-20 00:01:00,71.0,59.0,-100.00,ENE,75,29.0,37.0,66,-99.99,,,0.00,,2013-06-20 06:01:00,
2013-06-20 00:11:00,71.0,59.0,-100.00,ENE,75,27.0,31.0,66,-99.99,,,0.00,,2013-06-20 06:11:00,
2013-06-20 00:22:00,71.0,59.0,-100.00,ENE,75,27.0,31.0,66,-99.99,,,0.00,,2013-06-20 06:22:00,
2013-06-20 00:33:00,71.0,60.0,-100.00,ENE,75,28.0,33.0,67,-99.99,,,0.00,,2013-06-20 06:33:00,
2013-06-20 00:43:00,71.0,60.0,-100.00,ENE,75,28.0,33.0,67,-99.99,,,0.00,,2013-06-20 06:43:00,
2013-06-20 00:53:00,71.0,60.0,-100.00,East,80,30.0,35.0,67,-99.99,,,0.00,,2013-06-20 06:53:00,
2013-06-20 01:01:00,71.0,60.0,-100.00,East,80,30.0,35.0,67,-99.99,,,0.00,,2013-06-20 07:01:00,
2013-06-20 01:12:00,71.0,60.0,-100.00,ENE,75,27.0,31.0,68,-99.99,,,0.00,,2013-06-20 07:12:00,
2013-06-20 01:22:00,71.0,60.0,-100.00,ENE,75,27.0,31.0,68,-99.99,,,0.00,,2013-06-20 07:22:00,
2013-06-20 01:34:00,70.0,60.0,-100.00,East,80,24.0,27.0,70,-99.99,,,0.00,,2013-06-20 07:34:00,
2013-06-20 01:44:00,70.0,60.0,-100.00,East,80,24.0,27.0,70,-99.99,,,0.00,,2013-06-20 07:44:00,
2013-06-20 01:52:00,70.0,60.0,-100.00,East,80,23.0,26.0,71,-99.99,,,0.00,,2013-06-20 07:52:00,
2013-06-20 02:02:00,70.0,60.0,-100.00,East,80,23.0,26.0,71,-99.99,,,0.00,,2013-06-20 08:02:00,
2013-06-20 02:11:00,70.0,60.0,-100.00,ESE,110,14.0,18.0,72,-99.99,,,0.00,,2013-06-20 08:11:00,
2013-06-20 02:22:00,70.0,60.0,-100.00,ESE,110,14.0,18.0,72,-99.99,,,0.00,,2013-06-20 08:22:00,
2013-06-20 02:34:00,70.0,61.0,-100.00,East,80,19.0,21.0,72,-99.99,,,0.00,,2013-06-20 08:34:00,
2013-06-20 02:43:00,70.0,61.0,-100.00,East,80,19.0,21.0,72,-99.99,,,0.00,,2013-06-20 08:43:00,
2013-06-20 02:53:00,69.0,61.0,-100.00,ENE,75,12.0,15.0,75,-99.99,,,0.00,,2013-06-20 08:53:00,
2013-06-20 03:02:00,69.0,61.0,-100.00,ENE,75,12.0,15.0,75,-99.99,,,0.00,,2013-06-20 09:02:00,
2013-06-20 03:12:00,68.0,61.0,-100.00,ESE,105,14.0,19.0,79,-99.99,,,0.00,,2013-06-20 09:12:00,
2013-06-20 03:22:00,68.0,61.0,-100.00,ESE,105,14.0,19.0,79,-99.99,,,0.00,,2013-06-20 09:22:00,
2013-06-20 03:33:00,67.0,62.0,-100.00,ESE,115,11.0,12.0,82,-99.99,,,0.00,,2013-06-20 09:33:00,
2013-06-20 03:42:00,67.0,62.0,-100.00,ESE,115,11.0,12.0,82,-99.99,,,0.00,,2013-06-20 09:42:00,
2013-06-20 03:52:00,68.0,61.0,-100.00,South,170,10.0,11.0,80,-99.99,,,0.00,,2013-06-20 09:52:00,
2013-06-20 04:01:00,68.0,61.0,-100.00,South,170,10.0,11.0,80,-99.99,,,0.00,,2013-06-20 10:01:00,
2013-06-20 04:11:00,67.0,62.0,-100.00,WNW,290,17.0,21.0,84,-99.99,,,0.00,,2013-06-20 10:11:00,
2013-06-20 04:22:00,67.0,62.0,-100.00,WNW,290,17.0,21.0,84,-99.99,,,0.00,,2013-06-20 10:22:00,
2013-06-20 04:33:00,63.0,60.0,-100.00,WNW,285,17.0,20.0,90,-99.99,,,0.00,,2013-06-20 10:33:00,
2013-06-20 04:43:00,63.0,60.0,-100.00,WNW,285,17.0,20.0,90,-99.99,,,0.00,,2013-06-20 10:43:00,
2013-06-20 04:53:00,62.0,60.0,-100.00,NW,305,15.0,19.0,93,-99.99,,,0.00,,2013-06-20 10:53:00,
2013-06-20 05:02:00,62.0,60.0,-100.00,NW,305,15.0,19.0,93,-99.99,,,0.00,,2013-06-20 11:02:00,
2013-06-20 05:11:00,62.0,60.0,-100.00,NW,310,13.0,16.0,94,-99.99,,,0.00,,2013-06-20 11:11:00,
2013-06-20 05:22:00,62.0,60.0,-100.00,NW,310,13.0,16.0,94,-99.99,,,0.00,,2013-06-20 11:22:00,
2013-06-20 05:34:00,61.0,59.0,-100.00,West,260,11.0,14.0,94,-99.99,,,0.00,,2013-06-20 11:34:00,
2013-06-20 05:42:00,61.0,59.0,-100.00,West,260,11.0,14.0,94,-99.99,,,0.00,,2013-06-20 11:42:00,
2013-06-20 05:53:00,60.0,58.0,-100.00,West,265,8.0,11.0,93,-99.99,,,0.00,,2013-06-20 11:53:00,
2013-06-20 06:02:00,60.0,58.0,-100.00,West,265,8.0,11.0,93,-99.99,,,0.00,,2013-06-20 12:02:00,
2013-06-20 06:11:00,59.0,57.0,-100.00,West,280,9.0,11.0,93,-99.99,,,0.00,,2013-06-20 12:11:00,
2013-06-20 06:22:00,59.0,57.0,-100.00,West,280,9.0,11.0,93,-99.99,,,0.00,,2013-06-20 12:22:00,
2013-06-20 06:34:00,58.0,56.0,-100.00,WSW,255,10.0,11.0,93,-99.99,,,0.00,,2013-06-20 12:34:00,
2013-06-20 06:43:00,58.0,56.0,-100.00,WSW,255,10.0,11.0,93,-99.99,,,0.00,,2013-06-20 12:43:00,
2013-06-20 06:53:00,58.0,56.0,-100.00,WSW,240,12.0,14.0,93,-99.99,,,0.00,,2013-06-20 12:53:00,
2013-06-20 07:02:00,58.0,56.0,-100.00,WSW,240,12.0,14.0,93,-99.99,,,0.00,,2013-06-20 13:02:00,
2013-06-20 07:11:00,59.0,56.0,-100.00,WSW,255,10.0,13.0,89,-99.99,,,0.00,,2013-06-20 13:11:00,
2013-06-20 07:22:00,59.0,56.0,-100.00,WSW,255,10.0,13.0,89,-99.99,,,0.00,,2013-06-20 13:22:00,
2013-06-20 07:33:00,59.0,56.0,-100.00,WSW,255,11.0,13.0,89,-99.99,,,0.00,,2013-06-20 13:33:00,
2013-06-20 07:42:00,59.0,56.0,-100.00,WSW,255,11.0,13.0,89,-99.99,,,0.00,,2013-06-20 13:42:00,
2013-06-20 07:53:00,59.0,56.0,-100.00,WSW,255,16.0,18.0,89,-99.99,,,0.00,,2013-06-20 13:53:00,
2013-06-20 08:01:00,59.0,56.0,-100.00,WSW,255,16.0,18.0,89,-99.99,,,0.00,,2013-06-20 14:01:00,
2013-06-20 08:11:00,60.0,56.0,-100.00,West,260,14.0,17.0,89,-99.99,,,0.00,,2013-06-20 14:11:00,
2013-06-20 08:22:00,60.0,56.0,-100.00,West,260,14.0,17.0,89,-99.99,,,0.00,,2013-06-20 14:22:00,
2013-06-20 08:32:00,60.0,56.0,-100.00,West,265,11.0,12.0,88,-99.99,,,0.00,,2013-06-20 14:32:00,
2013-06-20 08:42:00,60.0,56.0,-100.00,West,265,11.0,12.0,88,-99.99,,,0.00,,2013-06-20 14:42:00,
2013-06-20 08:53:00,60.0,57.0,-100.00,WNW,290,8.0,10.0,88,-99.99,,,0.00,,2013-06-20 14:53:00,
2013-06-20 09:02:00,60.0,57.0,-100.00,WNW,290,8.0,10.0,88,-99.99,,,0.00,,2013-06-20 15:02:00,
2013-06-20 09:11:00,61.0,57.0,-100.00,West,265,11.0,12.0,86,-99.99,,,0.00,,2013-06-20 15:11:00,
2013-06-20 09:22:00,61.0,57.0,-100.00,West,265,11.0,12.0,86,-99.99,,,0.00,,2013-06-20 15:22:00,
2013-06-20 09:33:00,62.0,57.0,-100.00,West,260,11.0,12.0,85,-99.99,,,0.00,,2013-06-20 15:33:00,
2013-06-20 09:43:00,62.0,57.0,-100.00,West,260,11.0,12.0,85,-99.99,,,0.00,,2013-06-20 15:43:00,
2013-06-20 09:53:00,63.0,58.0,-100.00,WSW,250,9.0,11.0,82,-99.99,,,0.00,,2013-06-20 15:53:00,
2013-06-20 10:01:00,63.0,58.0,-100.00,WSW,250,9.0,11.0,82,-99.99,,,0.00,,2013-06-20 16:01:00,
2013-06-20 10:11:00,65.0,57.0,-100.00,WSW,245,12.0,14.0,75,-99.99,,,0.00,,2013-06-20 16:11:00,
2013-06-20 10:22:00,65.0,57.0,-100.00,WSW,245,12.0,14.0,75,-99.99,,,0.00,,2013-06-20 16:22:00,
2013-06-20 10:33:00,65.0,57.0,-100.00,WSW,245,12.0,16.0,74,-99.99,,,0.00,,2013-06-20 16:33:00,
2013-06-20 10:42:00,65.0,57.0,-100.00,WSW,245,12.0,16.0,74,-99.99,,,0.00,,2013-06-20 16:42:00,
2013-06-20 10:52:00,67.0,57.0,-100.00,SW,230,16.0,20.0,72,-99.99,,,0.00,,2013-06-20 16:52:00,
2013-06-20 11:01:00,67.0,57.0,-100.00,SW,230,16.0,20.0,72,-99.99,,,0.00,,2013-06-20 17:01:00,
2013-06-20 11:11:00,68.0,58.0,-100.00,SW,220,14.0,17.0,68,-99.99,,,0.00,,2013-06-20 17:11:00,
2013-06-20 11:22:00,68.0,58.0,-100.00,SW,220,14.0,17.0,68,-99.99,,,0.00,,2013-06-20 17:22:00,
2013-06-20 11:32:00,69.0,57.0,-100.00,SW,225,16.0,17.0,64,-99.99,,,0.00,,2013-06-20 17:32:00,
2013-06-20 11:43:00,69.0,57.0,-100.00,SW,225,16.0,17.0,64,-99.99,,,0.00,,2013-06-20 17:43:00,
2013-06-20 11:52:00,70.0,56.0,-100.00,WSW,255,11.0,14.0,62,-99.99,,,0.00,,2013-06-20 17:52:00,
2013-06-20 12:01:00,70.0,56.0,-100.00,WSW,255,11.0,14.0,62,-99.99,,,0.00,,2013-06-20 18:01:00,
2013-06-20 12:11:00,70.0,57.0,-100.00,WSW,245,8.0,9.0,62,-99.99,,,0.00,,2013-06-20 18:11:00,
2013-06-20 12:22:00,70.0,57.0,-100.00,WSW,245,8.0,9.0,62,-99.99,,,0.00,,2013-06-20 18:22:00,
2013-06-20 12:33:00,70.0,57.0,-100.00,WSW,245,8.0,9.0,62,-99.99,,,0.00,,2013-06-20 18:33:00,
2013-06-20 12:43:00,70.0,57.0,-100.00,WSW,245,8.0,9.0,62,-99.99,,,0.00,,2013-06-20 18:43:00,
2013-06-20 12:53:00,69.0,55.0,-100.00,WNW,290,13.0,14.0,61,-99.99,,,0.00,,2013-06-20 18:53:00,
2013-06-20 13:01:00,69.0,55.0,-100.00,WNW,290,13.0,14.0,61,-99.99,,,0.00,,2013-06-20 19:01:00,
2013-06-20 13:11:00,70.0,55.0,-100.00,WSW,240,7.0,9.0,59,-99.99,,,0.00,,2013-06-20 19:11:00,
2013-06-20 13:22:00,70.0,55.0,-100.00,WSW,240,7.0,9.0,59,-99.99,,,0.00,,2013-06-20 19:22:00,
2013-06-20 13:34:00,70.0,54.0,-100.00,West,275,10.0,12.0,58,-99.99,,,0.00,,2013-06-20 19:34:00,
2013-06-20 13:43:00,70.0,54.0,-100.00,West,275,10.0,12.0,58,-99.99,,,0.00,,2013-06-20 19:43:00,
2013-06-20 13:52:00,72.0,54.0,-100.00,WSW,250,9.0,11.0,53,-99.99,,,0.00,,2013-06-20 19:52:00,
2013-06-20 14:02:00,72.0,54.0,-100.00,WSW,250,9.0,11.0,53,-99.99,,,0.00,,2013-06-20 20:02:00,
2013-06-20 14:11:00,73.0,54.0,-100.00,WNW,295,11.0,13.0,51,-99.99,,,0.00,,2013-06-20 20:11:00,
2013-06-20 14:22:00,73.0,54.0,-100.00,WNW,295,11.0,13.0,51,-99.99,,,0.00,,2013-06-20 20:22:00,
2013-06-20 14:33:00,72.0,52.0,-100.00,WNW,295,9.0,12.0,48,-99.99,,,0.00,,2013-06-20 20:33:00,
2013-06-20 14:42:00,72.0,52.0,-100.00,WNW,295,9.0,12.0,48,-99.99,,,0.00,,2013-06-20 20:42:00,
2013-06-20 14:52:00,74.0,51.0,-100.00,West,275,10.0,14.0,45,-99.99,,,0.00,,2013-06-20 20:52:00,
2013-06-20 15:01:00,74.0,51.0,-100.00,West,275,10.0,14.0,45,-99.99,,,0.00,,2013-06-20 21:01:00,